createdAt,value
2022-07-30T00:00:02.225Z,61.75
2022-07-30T00:02:35.793Z,62.08
2022-07-30T00:05:12.911Z,62.27
2022-07-30T00:07:54.609Z,62.96
2022-07-30T00:10:28.024Z,62.37
2022-07-30T00:13:01.199Z,61.33
2022-07-30T00:15:34.820Z,60.83
2022-07-30T00:18:09.914Z,60.23
2022-07-30T00:20:44.414Z,61.37
2022-07-30T00:23:34.881Z,60.61
2022-07-30T00:26:13.535Z,60.74
2022-07-30T00:29:06.388Z,60.86
2022-07-30T00:31:51.859Z,60.60
2022-07-30T00:37:12.454Z,59.79
2022-07-30T00:39:45.246Z,59.11
2022-07-30T00:42:25.994Z,59.04
2022-07-30T00:44:54.767Z,59.41
2022-07-30T00:47:24.860Z,59.41
2022-07-30T00:49:53.536Z,59.42
2022-07-30T00:52:22.384Z,59.12
2022-07-30T00:55:09.634Z,58.96
2022-07-30T00:57:39.312Z,58.75
2022-07-30T01:00:10.733Z,59.57
2022-07-30T01:02:39.243Z,59.46
2022-07-30T01:05:07.255Z,59.00
2022-07-30T01:07:34.672Z,59.88
2022-07-30T01:10:02.788Z,59.67
2022-07-30T01:12:32.290Z,59.50
2022-07-30T01:15:03.557Z,59.62
2022-07-30T01:17:32.109Z,59.96
2022-07-30T01:20:44.642Z,60.17
2022-07-30T01:23:51.916Z,59.46
2022-07-30T01:26:22.462Z,59.24
2022-07-30T01:28:55.993Z,58.88
2022-07-30T01:31:27.040Z,59.23
2022-07-30T01:34:00.943Z,59.46
2022-07-30T01:36:29.793Z,58.94
2022-07-30T01:39:03.892Z,59.90
2022-07-30T01:41:34.459Z,59.96
2022-07-30T01:44:13.747Z,61.17
2022-07-30T01:46:45.278Z,60.11
2022-07-30T01:49:25.021Z,59.73
2022-07-30T01:52:06.326Z,59.44
2022-07-30T01:54:40.595Z,59.65
2022-07-30T01:57:09.098Z,59.51
2022-07-30T01:59:45.828Z,59.39
2022-07-30T02:02:17.887Z,59.38
2022-07-30T02:04:45.584Z,59.85
2022-07-30T02:07:43.146Z,60.05
2022-07-30T02:10:43.098Z,61.04
2022-07-30T02:13:19.848Z,61.29
2022-07-30T02:16:02.387Z,60.51
2022-07-30T02:18:44.460Z,60.98
2022-07-30T02:21:13.659Z,60.04
2022-07-30T02:23:46.805Z,60.50
2022-07-30T02:26:19.726Z,60.59
2022-07-30T02:28:53.018Z,61.22
2022-07-30T02:31:25.951Z,60.96
2022-07-30T02:33:58.260Z,60.74
2022-07-30T02:36:27.388Z,60.08
2022-07-30T02:38:55.030Z,60.08
2022-07-30T02:41:25.811Z,59.77
2022-07-30T02:43:56.489Z,59.53
2022-07-30T02:46:27.847Z,60.51
2022-07-30T02:48:57.843Z,60.61
2022-07-30T02:51:33.751Z,60.60
2022-07-30T02:54:04.121Z,60.48
2022-07-30T02:56:36.032Z,59.94
2022-07-30T02:59:05.875Z,60.39
2022-07-30T03:01:45.192Z,60.18
2022-07-30T03:04:14.234Z,59.81
2022-07-30T03:06:43.822Z,59.77
2022-07-30T03:09:17.942Z,60.02
2022-07-30T03:11:48.351Z,60.15
2022-07-30T03:14:58.938Z,60.46
2022-07-30T03:17:28.458Z,60.82
2022-07-30T03:19:59.118Z,60.69
2022-07-30T03:23:04.327Z,60.60
2022-07-30T03:26:02.577Z,60.17
2022-07-30T03:28:37.133Z,60.71
2022-07-30T03:31:08.217Z,60.69
2022-07-30T03:33:43.656Z,60.91
2022-07-30T03:36:18.397Z,60.77
2022-07-30T03:38:47.668Z,60.76
2022-07-30T03:41:30.626Z,60.32
2022-07-30T03:44:00.543Z,60.55
2022-07-30T03:46:28.508Z,60.99
2022-07-30T03:48:58.024Z,60.94
2022-07-30T03:51:32.982Z,60.38
2022-07-30T03:54:03.190Z,60.38
2022-07-30T03:56:33.117Z,60.46
2022-07-30T03:59:05.257Z,60.88
2022-07-30T04:01:34.123Z,61.07
2022-07-30T04:04:35.695Z,61.06
2022-07-30T04:07:05.804Z,62.39
2022-07-30T04:09:35.604Z,62.39
2022-07-30T04:12:42.455Z,63.54
2022-07-30T04:16:05.841Z,61.93
2022-07-30T04:18:21.070Z,62.35
2022-07-30T04:20:55.120Z,63.38
2022-07-30T04:23:27.930Z,62.33
2022-07-30T04:25:57.503Z,61.95
2022-07-30T04:28:31.172Z,62.70
2022-07-30T04:31:06.187Z,62.99
2022-07-30T04:33:36.549Z,62.78
2022-07-30T04:36:11.950Z,62.99
2022-07-30T04:38:49.071Z,62.62
2022-07-30T04:41:19.253Z,62.49
2022-07-30T04:43:48.417Z,61.79
2022-07-30T04:46:20.985Z,61.79
2022-07-30T04:48:54.461Z,62.70
2022-07-30T04:51:53.680Z,63.50
2022-07-30T04:54:31.358Z,62.19
2022-07-30T04:57:19.706Z,62.83
2022-07-30T04:59:51.930Z,63.10
2022-07-30T05:02:19.965Z,62.99
2022-07-30T05:04:56.528Z,63.60
2022-07-30T05:07:28.162Z,63.11
2022-07-30T05:10:01.286Z,63.11
2022-07-30T05:12:46.757Z,63.97
2022-07-30T05:15:16.662Z,64.06
2022-07-30T05:18:01.493Z,64.93
2022-07-30T05:20:32.083Z,64.01
2022-07-30T05:23:14.179Z,63.76
2022-07-30T05:25:44.067Z,63.30
2022-07-30T05:28:12.629Z,63.30
2022-07-30T05:30:44.807Z,63.72
2022-07-30T05:33:17.128Z,64.85
2022-07-30T05:35:47.621Z,64.06
2022-07-30T05:38:18.959Z,63.92
2022-07-30T05:40:55.114Z,63.68
2022-07-30T05:43:26.368Z,63.42
2022-07-30T05:45:55.192Z,63.50
2022-07-30T05:48:26.815Z,63.66
2022-07-30T05:50:53.851Z,64.11
2022-07-30T05:53:24.040Z,64.21
2022-07-30T05:55:51.157Z,63.85
2022-07-30T05:58:19.508Z,64.68
2022-07-30T06:00:47.201Z,64.15
2022-07-30T06:03:15.354Z,63.93
2022-07-30T06:06:11.799Z,64.79
2022-07-30T06:08:38.818Z,64.35
2022-07-30T06:11:09.228Z,63.46
2022-07-30T06:13:39.286Z,62.09
2022-07-30T06:16:07.481Z,59.98
2022-07-30T06:18:35.512Z,60.04
2022-07-30T06:21:05.643Z,58.29
2022-07-30T06:23:58.109Z,57.43
2022-07-30T06:26:29.960Z,56.24
2022-07-30T06:29:13.561Z,55.99
2022-07-30T06:31:43.175Z,53.10
2022-07-30T06:34:10.862Z,52.21
2022-07-30T06:36:40.743Z,50.90
2022-07-30T06:39:08.005Z,51.09
2022-07-30T06:41:36.732Z,50.81
2022-07-30T06:44:04.173Z,49.51
2022-07-30T06:46:31.743Z,48.78
2022-07-30T06:49:00.501Z,48.83
2022-07-30T06:51:29.270Z,48.66
2022-07-30T06:54:07.644Z,48.67
2022-07-30T06:56:55.643Z,47.89
2022-07-30T06:59:59.453Z,47.20
2022-07-30T07:02:29.822Z,46.80
2022-07-30T07:04:57.320Z,47.04
2022-07-30T07:07:57.903Z,45.89
2022-07-30T07:10:30.799Z,45.35
2022-07-30T07:13:16.229Z,45.35
2022-07-30T07:15:46.681Z,45.46
2022-07-30T07:18:15.830Z,45.67
2022-07-30T07:20:46.907Z,44.89
2022-07-30T07:23:15.164Z,44.97
2022-07-30T07:25:49.617Z,44.46
2022-07-30T07:28:30.647Z,44.36
2022-07-30T07:31:01.843Z,43.82
2022-07-30T07:33:31.011Z,44.41
2022-07-30T07:36:03.316Z,44.12
2022-07-30T07:38:30.622Z,43.55
2022-07-30T07:41:03.157Z,44.47
2022-07-30T07:43:33.733Z,44.10
2022-07-30T07:46:17.309Z,43.83
2022-07-30T07:49:07.607Z,43.95
2022-07-30T07:51:47.738Z,43.81
2022-07-30T07:54:28.340Z,43.07
2022-07-30T07:56:56.796Z,43.44
2022-07-30T07:59:36.336Z,44.19
2022-07-30T08:02:11.300Z,43.66
2022-07-30T08:04:41.367Z,43.73
2022-07-30T08:07:12.660Z,43.65
2022-07-30T08:09:44.652Z,43.57
2022-07-30T08:12:13.701Z,43.31
2022-07-30T08:15:04.140Z,43.60
2022-07-30T08:18:06.094Z,43.68
2022-07-30T08:20:59.180Z,43.75
2022-07-30T08:23:28.242Z,43.73
2022-07-30T08:25:59.242Z,43.04
2022-07-30T08:28:35.983Z,42.54
2022-07-30T08:31:10.895Z,42.62
2022-07-30T08:33:48.501Z,43.08
2022-07-30T08:36:24.057Z,43.21
2022-07-30T08:38:55.516Z,42.33
2022-07-30T08:41:50.770Z,42.26
2022-07-30T08:44:21.964Z,42.19
2022-07-30T08:46:53.289Z,41.87
2022-07-30T08:49:23.503Z,41.24
2022-07-30T08:51:52.156Z,40.61
2022-07-30T08:54:46.867Z,40.06
2022-07-30T08:57:17.894Z,39.92
2022-07-30T09:00:00.198Z,39.28
2022-07-30T09:02:32.407Z,39.01
2022-07-30T09:05:00.152Z,40.54
2022-07-30T09:07:29.725Z,39.11
2022-07-30T09:09:58.587Z,38.56
2022-07-30T09:12:41.618Z,37.80
2022-07-30T09:15:26.135Z,37.94
2022-07-30T09:18:01.885Z,37.74
2022-07-30T09:20:33.866Z,37.77
2022-07-30T09:23:36.222Z,37.03
2022-07-30T09:26:06.444Z,37.68
2022-07-30T09:28:34.673Z,38.16
2022-07-30T09:31:09.401Z,37.77
2022-07-30T09:33:47.442Z,37.18
2022-07-30T09:36:30.377Z,37.05
2022-07-30T09:39:04.636Z,38.05
2022-07-30T09:41:42.083Z,38.34
2022-07-30T09:44:10.225Z,38.08
2022-07-30T09:47:00.437Z,36.31
2022-07-30T09:49:33.106Z,35.04
2022-07-30T09:52:10.851Z,35.96
2022-07-30T09:54:52.433Z,36.72
2022-07-30T09:57:25.577Z,36.24
2022-07-30T10:00:26.099Z,37.69
2022-07-30T10:02:58.395Z,36.91
2022-07-30T10:05:30.892Z,36.71
2022-07-30T10:08:03.462Z,36.68
2022-07-30T10:10:55.954Z,37.60
2022-07-30T10:13:32.440Z,37.32
2022-07-30T10:16:16.906Z,38.13
2022-07-30T10:18:56.175Z,37.53
2022-07-30T10:21:29.082Z,37.44
2022-07-30T10:24:27.486Z,37.94
2022-07-30T10:27:16.167Z,36.54
2022-07-30T10:29:48.398Z,35.42
2022-07-30T10:32:18.178Z,35.48
2022-07-30T10:35:05.786Z,35.65
2022-07-30T10:37:45.564Z,36.19
2022-07-30T10:41:02.760Z,35.46
2022-07-30T10:44:40.551Z,35.79
2022-07-30T10:47:14.557Z,35.50
2022-07-30T10:49:52.695Z,35.31
2022-07-30T10:53:06.794Z,36.45
2022-07-30T10:55:39.536Z,36.76
2022-07-30T10:58:15.860Z,36.89
2022-07-30T11:01:02.704Z,36.49
2022-07-30T11:03:41.042Z,37.02
2022-07-30T11:06:16.645Z,35.12
2022-07-30T11:08:57.111Z,35.75
2022-07-30T11:12:01.033Z,36.35
2022-07-30T11:14:47.501Z,34.11
2022-07-30T11:17:19.741Z,34.18
2022-07-30T11:20:25.766Z,34.51
2022-07-30T11:23:29.546Z,35.06
2022-07-30T11:26:05.213Z,34.02
2022-07-30T11:28:38.555Z,35.57
2022-07-30T11:50:00.014Z,38.28
2022-07-30T12:16:54.323Z,41.88
2022-07-30T12:19:22.638Z,40.97
2022-07-30T12:21:54.261Z,42.04
2022-07-30T12:24:33.260Z,42.26
2022-07-30T12:27:08.789Z,42.97
2022-07-30T12:35:08.080Z,44.43
2022-07-30T12:37:41.962Z,44.11
2022-07-30T12:43:01.923Z,44.08
2022-07-30T12:45:52.292Z,43.38
2022-07-30T12:48:28.512Z,43.81
2022-07-30T14:59:10.067Z,39.81
2022-07-30T15:45:18.437Z,38.88
2022-07-30T17:23:45.705Z,39.56
